Huvudsida
METAR-TAF:

METAR-TAF

Flygplatser :

Jönköping Airport

Jönköping, Sverige

latitud: 57-46N, longitud: 014-05E, höjd: 226 m

Aktuellt väderrapport

Denna rapport gjordes för 34 minuter sedan, klockan 02:20 UTC
Vind 8 kt från nordväst
Temperatur 5°C
Fuktighet 87%
Tryck 1020 hPa
Sikt 10 km eller mer

METAR: ESGJ 190220Z AUTO 32008KT 9999 NCD 05/03 Q1020

Tid: 04:54 (02:54 UTC)

Väderprognos

Denna rapport gjordes för 6 timmar och 24 minuter sedan, klockan 20:30 UTC
Prognos gäller från 18 kl. 21 UTC till 19 kl. 01 UTC
Vind 5 kt från väst/nordväst
Sikt 10 km eller mer
Inga moln under 1 500 m eller inga cumulonimbus

TAF: ESGJ 182030Z 1821/1901 29005KT CAVOK

Aktuella väderrapporter och prognoser från 4000 flygplatser (METAR- och TAF-rapporter).

De tillgängliga stationerna syns som gula och röda prickar på kartan.

För musen över prickarna för att se namnen på stationerna.

Klicka sedan för att få väderrapporter och prognoser.

För att ändra kartan: Klicka på de gröna knapparna med ett svart kors på för att zooma in; den gröna knappen med ett streck på för att zooma ut; eller på de gröna pilarna för angränsande kartor.


METAR-TAF: